Weather at Merrill Glen Cove Heliport [CLOSED]

Public forecast

Using degrees Fahrenheit for public forecast. Weather courtesy of forecast.io.

Closest aviation weather report (METAR) to Merrill Glen Cove Heliport

Closest report is Republic Airport, 11.5 nm (21.2 km) SE. Retrieved 2022/01/22 19:53 UTC (60 minutes ago):

KFRG 221953Z VRB03KT 10SM CLR M01/M10 A3026 RMK AO2 SLP248 T10061100

Closest aviation forecast (TAF) to Merrill Glen Cove Heliport

Closest forecast is Westchester County Airport, 13.4 nm (24.8 km) NNW. Retrieved 2022/01/22 18:36 UTC (2 hours ago):

TAF KHPN 221733Z 2218/2318 35005KT P6SM SKC FM222000 VRB03KT P6SM BKN250 FM231300 28008KT P6SM SCT050 SCT150 BKN250 AMD NOT SKED